Stephen R Warden — WDC6523 — position and weather

sailwx.info

Track history (hours):
 
Tides and Currents Weather Stations Pressure Air Temp Water Temp Dewpoint Dewpoint Depression Visibility Wind Speed Wind Dir Waves Ship Positions

Stephen R Warden

Owner: American Commercial Lines LLC, Jeffersonvile, IN. More information available from US FCC via Universal Licensing System and Coast Guard Vessel Documentation Center.

Last reported at 2015-Aug-01 04:24 UTC. Time now 2015-Aug-01 13:52 UTC.
Position N 29°59' W 090°48'.

Length 37 m; draft 3 m.

Type: Towing. MMSI: 367057460.

Date/timePositionNaut miles runAvg speedWind from/ knotsBaromVisibWave heightAir tempDewpointWater temp
2015-Aug-01 04:24N 29°59' W 090°48'  
2015-Jul-28 15:25N 29°56' W 089°59'0 0.0
2015-Jul-28 14:28N 29°56' W 089°59'0 0.1
2015-Jul-28 10:24N 29°56' W 089°59'0 0.0
2015-Jul-28 09:25N 29°56' W 089°59'0 0.0
2015-Jul-28 08:16N 29°56' W 089°59'0 0.0
2015-Jul-28 07:21N 29°56' W 089°59'0 0.0
2015-Jul-28 06:30N 29°56' W 089°59'0 0.0
2015-Jul-28 05:30N 29°56' W 089°59'0 0.0
2015-Jul-28 04:26N 29°56' W 089°59'0 0.0
2015-Jul-28 03:24N 29°56' W 089°59'0 0.0
2015-Jul-28 02:17N 29°56' W 089°59'0 0.0
2015-Jul-28 01:13N 29°56' W 089°59'0 0.0
2015-Jul-27 23:24N 29°56' W 089°59'1 0.0
2015-Jul-26 15:27N 29°57' W 090°00'7 7.3
2015-Jul-26 14:31N 29°55' W 090°08'10 2.9
2015-Jul-26 11:10N 29°56' W 090°19'6 8.1
2015-Jul-26 10:23N 29°60' W 090°25'7 7.9
2015-Jul-26 09:33N 30°03' W 090°32'19 0.8
2015-Jul-25 08:09N 29°56' W 090°12'0 0.0
2015-Jul-25 07:11N 29°56' W 090°12'0 0.1
2015-Jul-25 06:33N 29°56' W 090°12'3 2.7
2015-Jul-25 05:27N 29°57' W 090°09'3 3.1
2015-Jul-25 04:24N 29°55' W 090°07'3 3.2
2015-Jul-25 03:31N 29°56' W 090°04'2 2.2
2015-Jul-25 02:33N 29°57' W 090°02'3 3.1
2015-Jul-25 01:30N 29°56' W 089°59'  
Track history (hours):
 
Tides and Currents Weather Stations Pressure Air Temp Water Temp Dewpoint Dewpoint Depression Visibility Wind Speed Wind Dir Waves Ship Positions

Stephen R Warden

Owner: American Commercial Lines LLC, Jeffersonvile, IN. More information available from US FCC via Universal Licensing System and Coast Guard Vessel Documentation Center.

Last reported at 2015-Aug-01 04:24 UTC. Time now 2015-Aug-01 13:52 UTC.
Position N 29°59' W 090°48'.

Length 37 m; draft 3 m.

Type: Towing. MMSI: 367057460.

Date/timePositionNaut miles runAvg speedWind from/ knotsBaromVisibWave heightAir tempDewpointWater temp
2015-Aug-01 04:24N 29°59' W 090°48'  
2015-Jul-28 15:25N 29°56' W 089°59'0 0.0
2015-Jul-28 14:28N 29°56' W 089°59'0 0.1
2015-Jul-28 10:24N 29°56' W 089°59'0 0.0
2015-Jul-28 09:25N 29°56' W 089°59'0 0.0
2015-Jul-28 08:16N 29°56' W 089°59'0 0.0
2015-Jul-28 07:21N 29°56' W 089°59'0 0.0
2015-Jul-28 06:30N 29°56' W 089°59'0 0.0
2015-Jul-28 05:30N 29°56' W 089°59'0 0.0
2015-Jul-28 04:26N 29°56' W 089°59'0 0.0
2015-Jul-28 03:24N 29°56' W 089°59'0 0.0
2015-Jul-28 02:17N 29°56' W 089°59'0 0.0
2015-Jul-28 01:13N 29°56' W 089°59'0 0.0
2015-Jul-27 23:24N 29°56' W 089°59'1 0.0
2015-Jul-26 15:27N 29°57' W 090°00'7 7.3
2015-Jul-26 14:31N 29°55' W 090°08'10 2.9
2015-Jul-26 11:10N 29°56' W 090°19'6 8.1
2015-Jul-26 10:23N 29°60' W 090°25'7 7.9
2015-Jul-26 09:33N 30°03' W 090°32'19 0.8
2015-Jul-25 08:09N 29°56' W 090°12'0 0.0
2015-Jul-25 07:11N 29°56' W 090°12'0 0.1
2015-Jul-25 06:33N 29°56' W 090°12'3 2.7
2015-Jul-25 05:27N 29°57' W 090°09'3 3.1
2015-Jul-25 04:24N 29°55' W 090°07'3 3.2
2015-Jul-25 03:31N 29°56' W 090°04'2 2.2
2015-Jul-25 02:33N 29°57' W 090°02'3 3.1
2015-Jul-25 01:30N 29°56' W 089°59'  

Dump ship's entire track history